New York, NY

11:31 EST le 02 Mars 2015 (GMT -0500)
Murray Hill | Change Station
CLOSE
Current Station
Stations météorologiques personnelles
Location: New York, NY
Altitude: 98 ft
Stations météo à proximité

Alt. 98 ft 40.75 °N, 73.98 °W | Updated 40 seconds ago

Overcast
Couvert
34.5 ° F
Paraît 26 ° F
N
12.0
Vent Variable Vent de NNO
Gusts 21.0 mph

Aujourd'hui
Haut(e) -- | Bas -- ° F
--% Risque de précip.
Hier
Haut(e) -- | Bas -- ° F
Precip. -- pouce
6:28 AM 5:48 PM
Lune gibbeuse croissante, 92% visible
Pression 30.16 pouce
Visibilité 10.0 Miles terrestres
Nuages Peu 2800 ft
Nuages épars 3800 ft
Couvert 4800 ft
Refroidissement éolien 26 ° F
Point de rosée 20 ° F
Humidité 56%
Précipitations 0.02 pouce
Profondeur de la couche neigeuse Non disponible.
UV 1 sur 12
Pollen .50 sur 12
Qualité de l'air Non disponible.
Flu Activity Non disponible.
METAR KNYC 021551Z AUTO 31013G27KT 10SM FEW028 SCT038 OVC048 01/M08 A3018 RMK AO2 PK WND 32027/1549 SLP211 T00111083

More Conditions Fewer Conditions

Pression 30.16 pouce
Visibilité 10.0 Miles terrestres
Nuages Peu 2800 ft
Nuages épars 3800 ft
Couvert 4800 ft
Refroidissement éolien 26 ° F
Point de rosée 20 ° F
Humidité 56%
Précipitations 0.02 pouce
Profondeur de la couche neigeuse Non disponible.
UV 1 sur 12
Pollen .50 sur 12
Qualité de l'air Non disponible.
Flu Activity Non disponible.
METAR KNYC 021551Z AUTO 31013G27KT 10SM FEW028 SCT038 OVC048 01/M08 A3018 RMK AO2 PK WND 32027/1549 SLP211 T00111083

More Conditions Fewer Conditions

10-Day Weather Forecast

Almanac

Astronomie

Mar. 02, 2015 Lever Coucher
Temps réel
Crépuscule civil
Crépuscule nautique
Crépuscule astronomique
Lune
Durée de lumière visible
Longueur du jour
Tomorrow will be .
, % of the Moon is Illuminated

Extrêmes aujourd'hui

State Highs State Lows

Community

WunderPhotos

Upload Photos

1,801,840 Photos téléchargées !

WunderBlogs® & News

Nearby

Qualité de l'air

  Qualité de l'air Indice de la qualité de l'air Polluant
Not available.

Épaisseur de neige

Station Depth Altitude

Activité sismique

Ville Distance Mag. Time & Date
Minimum magnitude displayed is 2.5.

Températures des eaux côtières

Lieu Température

Stations météo à proximité